Terminal Aerodrome Forecast
Issued by NWS Lake Charles, LA

Home | Current Version | Previous Version | Text Only | Print | Product List | Glossary On
Versions: 1 2 3 4 5 6 7 8 9 10 11 12 13 14 15 16
000
FTUS44 KLCH 301132
TAFARA
TAF
KARA 301132Z 3012/3112 00000KT 1/4SM FG VV003
     FM301400 VRB04KT P6SM FEW015
     FM301900 18005KT P6SM VCSH SCT035
     FM310100 VRB03KT P6SM SCT200
     FM310900 00000KT 4SM BR SCT200=

USA.gov is the U.S. government's official web portal to all federal, state and local government web resources and services.